Time;durP1;ratioP1;P1;durP2;ratioP2;P2;SDS_P1;SDS_P2;PMS_P1;PMS_P2;Temp;Humidity;BMP_temperature;BMP_pressure;BME280_temperature;BME280_humidity;BME280_pressure;Samples;Min_cycle;Max_cycle;Signal;HPM_P1;HPM_P2
2024/04/08 00:01:10;;;;;;;8.57;1.40;;;10.30;99.90;;;;;;4929819;29;20032;-93
2024/04/08 00:03:36;;;;;;;9.43;1.63;;;10.30;99.90;;;;;;4913020;29;20043;-93
2024/04/08 00:06:04;;;;;;;10.75;1.50;;;10.40;99.90;;;;;;4928670;29;20052;-93
2024/04/08 00:08:33;;;;;;;9.70;1.58;;;10.30;99.90;;;;;;4944914;29;20079;-92
2024/04/08 00:11:08;;;;;;;9.80;2.70;;;10.30;99.90;;;;;;4929845;29;20621;-93
2024/04/08 00:13:38;;;;;;;6.78;1.60;;;10.30;99.90;;;;;;4913340;29;20083;-93
2024/04/08 00:16:09;;;;;;;9.10;1.40;;;10.30;99.90;;;;;;4929531;29;20034;-93
2024/04/08 00:18:39;;;;;;;14.52;1.98;;;10.30;99.90;;;;;;4946448;29;20036;-94
2024/04/08 00:21:13;;;;;;;10.65;1.30;;;10.20;99.90;;;;;;4934522;29;20052;-93
2024/04/08 00:23:48;;;;;;;7.03;2.08;;;10.20;99.90;;;;;;4935728;29;20035;-93
2024/04/08 00:26:14;;;;;;;10.40;1.80;;;10.20;99.90;;;;;;4934388;29;20043;-94
2024/04/08 00:28:43;;;;;;;10.02;1.42;;;10.20;99.90;;;;;;4933251;29;20044;-94
2024/04/08 00:31:10;;;;;;;6.82;1.52;;;10.20;99.90;;;;;;4958775;29;20027;-93
2024/04/08 00:33:37;;;;;;;10.55;1.75;;;10.20;99.90;;;;;;4912034;29;20071;-94
2024/04/08 00:36:06;;;;;;;14.85;2.05;;;10.20;99.90;;;;;;4910739;29;20028;-93
2024/04/08 00:38:39;;;;;;;10.90;1.30;;;10.10;99.90;;;;;;4941592;29;20055;-93
2024/04/08 00:41:08;;;;;;;14.98;1.75;;;10.10;99.90;;;;;;4909962;29;20119;-94
2024/04/08 00:43:36;;;;;;;8.77;1.60;;;10.10;99.90;;;;;;4910701;29;20368;-93
2024/04/08 00:46:02;;;;;;;19.05;2.15;;;10.10;99.90;;;;;;4894522;29;20068;-92
2024/04/08 00:48:37;;;;;;;6.82;1.75;;;10.10;99.90;;;;;;4877794;29;20140;-92
2024/04/08 00:51:04;;;;;;;11.27;1.92;;;10.10;99.90;;;;;;4924900;29;20040;-94
2024/04/08 00:53:30;;;;;;;9.32;1.40;;;10.10;99.90;;;;;;4926143;29;20108;-93
2024/04/08 00:55:58;;;;;;;11.27;2.08;;;10.10;99.90;;;;;;4940931;29;20076;-93
2024/04/08 00:58:23;;;;;;;7.30;1.33;;;10.10;99.90;;;;;;4940535;29;20081;-93
2024/04/08 01:00:50;;;;;;;9.95;1.35;;;10.10;99.90;;;;;;4942801;29;20032;-93
2024/04/08 01:03:16;;;;;;;12.57;1.90;;;10.00;99.90;;;;;;4943069;29;20048;-92
2024/04/08 01:05:47;;;;;;;5.95;1.63;;;10.00;99.90;;;;;;4934519;29;20076;-91
2024/04/08 01:08:13;;;;;;;10.20;1.52;;;10.00;99.90;;;;;;4892440;29;20041;-93
2024/04/08 01:10:39;;;;;;;16.95;1.98;;;10.00;99.90;;;;;;4893003;29;20037;-92
2024/04/08 01:13:05;;;;;;;13.07;1.58;;;10.00;99.90;;;;;;4893317;29;20037;-92
2024/04/08 01:15:31;;;;;;;12.70;1.63;;;10.00;99.90;;;;;;4892637;29;20138;-93
2024/04/08 01:18:00;;;;;;;6.65;1.27;;;10.00;99.90;;;;;;4892532;29;20021;-93
2024/04/08 01:20:29;;;;;;;8.80;1.67;;;9.90;99.90;;;;;;4896500;29;20486;-93
2024/04/08 01:22:59;;;;;;;11.20;1.65;;;9.90;99.90;;;;;;4893878;29;20036;-92
2024/04/08 01:25:25;;;;;;;12.13;2.05;;;9.90;99.90;;;;;;4890831;29;20060;-93
2024/04/08 01:27:51;;;;;;;9.70;2.10;;;9.90;99.90;;;;;;4891056;29;20033;-92
2024/04/08 01:30:24;;;;;;;15.02;2.13;;;9.90;99.90;;;;;;4875895;29;20049;-92
2024/04/08 01:32:50;;;;;;;16.15;2.15;;;9.90;99.90;;;;;;4891277;29;20443;-93
2024/04/08 01:35:20;;;;;;;11.52;2.53;;;9.90;99.90;;;;;;4890045;29;20398;-93
2024/04/08 01:37:49;;;;;;;12.90;2.85;;;9.90;99.90;;;;;;4890605;29;20048;-92
2024/04/08 01:40:20;;;;;;;16.73;1.80;;;9.90;99.90;;;;;;4874924;29;20064;-93
2024/04/08 01:42:46;;;;;;;9.55;1.48;;;9.90;99.90;;;;;;4889712;29;20056;-94
2024/04/08 01:45:12;;;;;;;11.85;1.38;;;9.90;99.90;;;;;;4889414;29;20043;-93
2024/04/08 01:47:39;;;;;;;10.30;1.60;;;9.90;99.90;;;;;;4889763;29;20029;-93
2024/04/08 01:50:05;;;;;;;11.63;2.38;;;9.90;99.90;;;;;;4889832;29;20044;-93
2024/04/08 01:52:32;;;;;;;14.48;1.90;;;9.90;99.90;;;;;;4889836;29;20033;-94
2024/04/08 01:55:00;;;;;;;14.48;1.70;;;9.90;99.90;;;;;;4889882;29;20052;-93
2024/04/08 01:57:30;;;;;;;11.38;1.70;;;9.80;99.90;;;;;;4890161;29;20029;-93
2024/04/08 01:59:58;;;;;;;14.00;3.20;;;9.80;99.90;;;;;;4906160;29;20025;-93
2024/04/08 02:02:24;;;;;;;9.50;1.90;;;9.80;99.90;;;;;;4889511;29;20119;-93
2024/04/08 02:04:57;;;;;;;14.48;1.85;;;9.80;99.90;;;;;;4905862;29;20061;-93
2024/04/08 02:07:27;;;;;;;9.77;1.40;;;9.80;99.90;;;;;;4925219;29;20087;-93
2024/04/08 02:09:54;;;;;;;13.35;1.98;;;9.80;99.90;;;;;;4923342;29;20040;-93
2024/04/08 02:12:21;;;;;;;16.13;1.83;;;9.80;99.90;;;;;;4939280;29;20478;-93
2024/04/08 02:15:01;;;;;;;7.32;1.30;;;9.80;99.90;;;;;;4939356;29;20040;-92
2024/04/08 02:17:27;;;;;;;11.13;1.73;;;9.80;99.90;;;;;;4938707;29;20040;-93
2024/04/08 02:19:54;;;;;;;10.18;1.30;;;9.80;99.90;;;;;;4891986;29;20043;-93
2024/04/08 02:22:23;;;;;;;8.65;1.48;;;9.70;99.90;;;;;;4938736;29;20032;-93
2024/04/08 02:24:49;;;;;;;16.77;1.58;;;9.80;99.90;;;;;;4937903;29;20135;-93
2024/04/08 02:27:15;;;;;;;11.32;1.65;;;9.80;99.90;;;;;;4939084;29;20055;-93
2024/04/08 02:29:41;;;;;;;11.20;2.13;;;9.70;99.90;;;;;;4938427;29;20032;-93
2024/04/08 02:32:07;;;;;;;15.65;1.67;;;9.80;99.90;;;;;;4938511;29;20032;-93
2024/04/08 02:34:34;;;;;;;10.32;1.40;;;9.80;99.90;;;;;;4938464;29;20032;-93
2024/04/08 02:37:00;;;;;;;10.07;1.50;;;9.80;99.90;;;;;;4938765;29;20032;-92
2024/04/08 02:39:26;;;;;;;11.50;1.20;;;9.80;99.90;;;;;;4937791;29;20099;-93
2024/04/08 02:41:52;;;;;;;7.95;1.90;;;9.80;99.90;;;;;;4906696;29;20080;-92
2024/04/08 02:44:18;;;;;;;10.82;1.38;;;9.80;99.90;;;;;;4938798;29;20052;-92
2024/04/08 02:46:43;;;;;;;6.00;1.40;;;9.80;99.90;;;;;;4938733;29;20029;-93
2024/04/08 02:49:09;;;;;;;7.80;1.30;;;9.80;99.90;;;;;;4939288;29;20040;-92
2024/04/08 02:51:36;;;;;;;7.72;1.27;;;9.80;99.90;;;;;;4938623;29;20036;-92
2024/04/08 02:54:02;;;;;;;6.30;0.90;;;9.80;99.90;;;;;;4938036;29;20547;-93
2024/04/08 02:56:29;;;;;;;8.75;2.22;;;9.90;99.90;;;;;;4937989;29;20056;-92
2024/04/08 02:58:54;;;;;;;7.00;1.02;;;9.90;99.90;;;;;;4938203;29;20028;-93
2024/04/08 03:01:22;;;;;;;6.97;1.10;;;9.90;99.90;;;;;;4937862;29;20051;-93
2024/04/08 03:03:48;;;;;;;5.35;1.08;;;9.90;99.90;;;;;;4937639;29;20477;-91
2024/04/08 03:06:15;;;;;;;8.35;0.80;;;9.90;99.90;;;;;;4938237;29;20062;-92
2024/04/08 03:08:42;;;;;;;7.35;1.95;;;9.90;99.90;;;;;;4937942;29;20032;-92
2024/04/08 03:11:09;;;;;;;3.60;0.80;;;9.90;99.90;;;;;;4938709;29;20024;-91
2024/04/08 03:13:36;;;;;;;4.95;0.90;;;9.90;99.90;;;;;;4941210;29;20056;-92
2024/04/08 03:16:02;;;;;;;6.13;1.10;;;9.80;99.90;;;;;;4940940;29;20167;-92
2024/04/08 03:18:28;;;;;;;4.07;0.73;;;9.90;99.90;;;;;;4941778;29;20032;-93
2024/04/08 03:21:00;;;;;;;5.07;0.85;;;9.90;99.90;;;;;;4909251;29;20486;-92
2024/04/08 03:23:26;;;;;;;7.10;1.05;;;9.90;99.90;;;;;;4926217;29;20047;-93
2024/04/08 03:26:02;;;;;;;5.55;1.08;;;9.90;99.90;;;;;;4939998;29;20028;-93
2024/04/08 03:28:29;;;;;;;5.22;1.20;;;9.90;99.90;;;;;;4939039;29;20371;-93
2024/04/08 03:30:56;;;;;;;5.97;0.90;;;9.90;99.90;;;;;;4908699;29;20032;-93
2024/04/08 03:33:23;;;;;;;8.77;0.90;;;10.00;99.90;;;;;;4939929;29;20068;-94
2024/04/08 03:35:50;;;;;;;3.22;1.02;;;10.00;99.90;;;;;;4938231;29;20047;-92
2024/04/08 03:38:19;;;;;;;6.20;1.33;;;10.00;99.90;;;;;;4938521;29;20491;-93
2024/04/08 03:40:48;;;;;;;6.03;1.02;;;10.00;99.90;;;;;;4890713;29;20104;-92
2024/04/08 03:43:13;;;;;;;8.48;1.15;;;10.00;99.90;;;;;;4938498;29;20059;-92
2024/04/08 03:45:40;;;;;;;4.45;0.80;;;10.10;99.90;;;;;;4923132;29;20032;-93
2024/04/08 03:48:06;;;;;;;4.93;1.10;;;10.10;99.90;;;;;;4937485;29;20028;-93
2024/04/08 03:50:34;;;;;;;4.15;1.10;;;10.00;99.90;;;;;;4940753;29;20046;-94
2024/04/08 03:53:00;;;;;;;6.43;0.93;;;10.00;99.90;;;;;;4942490;29;20157;-94
2024/04/08 03:55:32;;;;;;;7.90;1.45;;;10.00;99.90;;;;;;4897904;29;20039;-93
2024/04/08 03:57:58;;;;;;;4.10;1.10;;;10.00;99.90;;;;;;4908523;29;20040;-93
2024/04/08 04:00:24;;;;;;;5.15;1.02;;;10.00;99.90;;;;;;4938913;29;20059;-92
2024/04/08 04:02:51;;;;;;;11.13;1.08;;;10.00;99.90;;;;;;4938853;29;20028;-94
2024/04/08 04:05:18;;;;;;;7.55;1.08;;;10.00;99.90;;;;;;4938242;29;20052;-94
2024/04/08 04:07:44;;;;;;;5.15;1.25;;;10.00;99.90;;;;;;4907078;29;20036;-93
2024/04/08 04:10:10;;;;;;;7.82;1.60;;;10.00;99.90;;;;;;4955227;29;20036;-94
2024/04/08 04:12:38;;;;;;;6.25;1.42;;;9.90;99.90;;;;;;4925561;29;20038;-94
2024/04/08 04:15:12;;;;;;;5.45;1.33;;;9.90;99.90;;;;;;4925724;29;20095;-95
2024/04/08 04:17:39;;;;;;;7.50;1.23;;;9.90;99.90;;;;;;4923265;29;20486;-94
2024/04/08 04:20:08;;;;;;;8.60;1.58;;;10.00;99.90;;;;;;4924886;29;20051;-95
2024/04/08 04:22:34;;;;;;;11.13;2.40;;;10.00;99.90;;;;;;4928292;29;20056;-95
2024/04/08 04:25:00;;;;;;;6.30;2.00;;;10.00;99.90;;;;;;4929006;29;20027;-94
2024/04/08 04:27:26;;;;;;;9.35;1.77;;;10.00;99.90;;;;;;4929313;29;20118;-95
2024/04/08 04:29:51;;;;;;;8.98;2.20;;;9.90;99.90;;;;;;4928323;29;20035;-94
2024/04/08 04:32:17;;;;;;;7.38;1.73;;;10.00;99.90;;;;;;4928991;29;20030;-93
2024/04/08 04:34:43;;;;;;;12.90;2.13;;;9.90;99.90;;;;;;4927884;29;20042;-93
2024/04/08 04:37:10;;;;;;;6.55;1.50;;;10.00;99.90;;;;;;4927566;29;20023;-93
2024/04/08 04:39:36;;;;;;;9.48;2.35;;;9.90;99.90;;;;;;4927788;29;20032;-93
2024/04/08 04:42:02;;;;;;;7.47;2.03;;;9.90;99.90;;;;;;4928053;29;20031;-92
2024/04/08 04:44:28;;;;;;;7.03;1.67;;;10.00;99.90;;;;;;4927825;29;20032;-92
2024/04/08 04:46:54;;;;;;;7.38;1.77;;;9.90;99.90;;;;;;4927468;29;20070;-93
2024/04/08 04:49:20;;;;;;;6.93;1.75;;;9.90;99.90;;;;;;4927224;29;20031;-93
2024/04/08 04:51:46;;;;;;;6.18;1.77;;;10.00;99.90;;;;;;4927424;29;20035;-93
2024/04/08 04:54:12;;;;;;;3.80;1.50;;;10.00;99.90;;;;;;4927791;29;20386;-92
2024/04/08 04:56:38;;;;;;;4.32;1.30;;;9.90;99.90;;;;;;4927590;29;20450;-94
2024/04/08 04:59:03;;;;;;;7.10;1.58;;;9.90;99.90;;;;;;4927335;29;20032;-92
2024/04/08 05:01:29;;;;;;;6.22;1.73;;;9.90;99.90;;;;;;4927420;29;20028;-93
2024/04/08 05:03:55;;;;;;;9.35;2.42;;;10.00;99.90;;;;;;4927292;29;20072;-93
2024/04/08 05:06:21;;;;;;;7.32;2.35;;;10.00;99.90;;;;;;4927009;29;20047;-93
2024/04/08 05:08:48;;;;;;;11.00;2.15;;;10.00;99.90;;;;;;4927765;29;20036;-92
2024/04/08 05:11:14;;;;;;;9.48;1.70;;;10.10;99.90;;;;;;4927142;29;20118;-92
2024/04/08 05:13:39;;;;;;;8.32;2.03;;;10.10;99.90;;;;;;4927694;29;20051;-93
2024/04/08 05:16:05;;;;;;;10.68;2.22;;;10.00;99.90;;;;;;4928044;29;20028;-92
2024/04/08 05:18:32;;;;;;;14.20;2.40;;;10.00;99.90;;;;;;4927230;29;20079;-93
2024/04/08 05:21:02;;;;;;;18.48;2.97;;;10.00;99.90;;;;;;4912008;29;20426;-94
2024/04/08 05:23:31;;;;;;;15.93;2.93;;;10.00;99.90;;;;;;4927582;29;20028;-95
2024/04/08 05:25:58;;;;;;;21.50;2.80;;;10.00;99.90;;;;;;4927194;29;20062;-94
2024/04/08 05:28:23;;;;;;;27.17;4.00;;;10.00;99.90;;;;;;4927888;29;20035;-94
2024/04/08 05:30:52;;;;;;;25.95;3.60;;;10.00;99.90;;;;;;4927646;29;20040;-94
2024/04/08 05:33:18;;;;;;;20.02;3.15;;;10.00;99.90;;;;;;4928373;29;20056;-93
2024/04/08 05:35:44;;;;;;;19.80;3.20;;;10.00;99.90;;;;;;4927354;29;20032;-92
2024/04/08 05:38:11;;;;;;;26.90;3.50;;;10.00;99.90;;;;;;4927396;29;20071;-94
2024/04/08 05:40:39;;;;;;;19.73;3.58;;;10.10;99.90;;;;;;4927231;29;20036;-93
2024/04/08 05:43:14;;;;;;;22.23;2.90;;;10.10;99.90;;;;;;4926573;29;20459;-95
2024/04/08 05:45:40;;;;;;;22.95;3.58;;;10.10;99.90;;;;;;4912221;29;20099;-93
2024/04/08 05:48:10;;;;;;;19.48;2.35;;;10.10;99.90;;;;;;4927241;29;20032;-93
2024/04/08 05:50:36;;;;;;;15.55;2.10;;;10.10;99.90;;;;;;4926968;29;20024;-93
2024/04/08 05:53:18;;;;;;;27.55;3.50;;;10.10;99.90;;;;;;4926643;29;20035;-93
2024/04/08 05:55:48;;;;;;;26.45;4.07;;;10.10;99.90;;;;;;4926626;29;20167;-93
2024/04/08 05:58:14;;;;;;;16.77;3.10;;;10.20;99.90;;;;;;4926427;29;20048;-93
2024/04/08 06:00:41;;;;;;;12.50;3.28;;;10.20;99.90;;;;;;4911016;29;20390;-91
2024/04/08 06:03:11;;;;;;;21.35;2.67;;;10.20;99.90;;;;;;4946939;29;20106;-95
2024/04/08 06:05:49;;;;;;;22.67;2.30;;;10.20;99.90;;;;;;4930707;29;20051;-92
2024/04/08 06:08:39;;;;;;;21.05;3.22;;;10.20;99.90;;;;;;4928631;29;20042;-92
2024/04/08 06:11:08;;;;;;;16.27;2.15;;;10.20;99.90;;;;;;4927976;29;20067;-92
2024/04/08 06:13:37;;;;;;;19.13;3.30;;;10.30;99.90;;;;;;4926729;29;20034;-93
2024/04/08 06:16:03;;;;;;;29.48;2.80;;;10.20;99.90;;;;;;4925500;29;20061;-93
2024/04/08 06:18:29;;;;;;;20.73;3.47;;;10.30;99.90;;;;;;4926396;29;20136;-92
2024/04/08 06:20:56;;;;;;;24.00;2.55;;;10.30;99.90;;;;;;4925891;29;20054;-93
2024/04/08 06:23:23;;;;;;;15.25;2.20;;;10.30;99.90;;;;;;4926375;29;20027;-94
2024/04/08 06:26:02;;;;;;;16.25;2.90;;;10.30;99.90;;;;;;4926179;29;20027;-92
2024/04/08 06:28:32;;;;;;;28.33;3.97;;;10.30;99.90;;;;;;4925828;29;20031;-92
2024/04/08 06:31:05;;;;;;;19.58;2.92;;;10.30;99.90;;;;;;4926669;29;20040;-93
2024/04/08 06:33:32;;;;;;;21.45;2.60;;;10.30;99.90;;;;;;4910660;29;20114;-94
2024/04/08 06:36:00;;;;;;;10.85;2.05;;;10.30;99.90;;;;;;4925064;29;20032;-93
2024/04/08 06:38:31;;;;;;;23.27;2.63;;;10.30;99.90;;;;;;4925268;29;20032;-94
2024/04/08 06:40:58;;;;;;;18.85;2.42;;;10.30;99.90;;;;;;4937449;29;20031;-94
2024/04/08 06:43:27;;;;;;;18.13;2.70;;;10.40;99.90;;;;;;4932178;29;20557;-93
2024/04/08 06:45:57;;;;;;;25.65;2.88;;;10.40;99.90;;;;;;4937567;29;20062;-93
2024/04/08 06:48:26;;;;;;;;;;;10.40;99.90;;;;;;4953734;29;20511;-92
2024/04/08 06:50:52;;;;;;;22.38;2.55;;;10.40;99.90;;;;;;4934020;29;19934;-95
2024/04/08 06:53:19;;;;;;;21.00;4.28;;;10.50;99.90;;;;;;4932431;29;20031;-92
2024/04/08 06:55:48;;;;;;;14.32;3.05;;;10.50;99.90;;;;;;4938044;29;20115;-92
2024/04/08 06:58:18;;;;;;;20.70;2.85;;;10.50;99.90;;;;;;4931691;29;20509;-92
2024/04/08 07:00:47;;;;;;;;;;;10.50;99.90;;;;;;4932753;29;20051;-92
2024/04/08 07:03:16;;;;;;;21.25;2.70;;;10.50;99.90;;;;;;4932782;29;19934;-91
2024/04/08 07:05:44;;;;;;;21.63;3.60;;;10.50;99.90;;;;;;4929833;29;20058;-92
2024/04/08 07:08:10;;;;;;;20.50;2.85;;;10.60;99.90;;;;;;4932225;29;20501;-91
2024/04/08 07:10:40;;;;;;;23.35;2.53;;;10.60;99.90;;;;;;4931893;29;20035;-91
2024/04/08 07:13:06;;;;;;;19.40;2.78;;;10.70;99.90;;;;;;4935909;29;20477;-95
2024/04/08 07:15:32;;;;;;;29.27;3.53;;;10.60;99.90;;;;;;4938160;29;20520;-92
2024/04/08 07:17:58;;;;;;;19.52;3.50;;;10.70;99.90;;;;;;4931925;29;20022;-91
2024/04/08 07:20:24;;;;;;;16.83;2.30;;;10.70;99.90;;;;;;4943649;29;20023;-92
2024/04/08 07:22:52;;;;;;;17.70;1.98;;;10.70;99.90;;;;;;4925431;29;20028;-92
2024/04/08 07:25:21;;;;;;;21.75;2.30;;;10.80;99.90;;;;;;4936796;29;20533;-92
2024/04/08 07:27:48;;;;;;;21.83;2.70;;;10.80;99.90;;;;;;4924329;29;20032;-92
2024/04/08 07:30:14;;;;;;;13.90;2.40;;;10.80;99.90;;;;;;4918931;29;20043;-90
2024/04/08 07:32:44;;;;;;;11.68;2.30;;;10.80;99.90;;;;;;4928214;29;20023;-93
2024/04/08 07:35:16;;;;;;;16.80;3.07;;;10.90;99.90;;;;;;4925038;29;20033;-92
2024/04/08 07:37:42;;;;;;;11.13;2.03;;;10.90;99.90;;;;;;4923760;29;20027;-91
2024/04/08 07:40:12;;;;;;;15.95;2.38;;;10.90;99.90;;;;;;4937275;29;20114;-92
2024/04/08 07:42:37;;;;;;;13.25;3.00;;;10.90;99.90;;;;;;4920580;29;20028;-93
2024/04/08 07:45:03;;;;;;;12.07;1.60;;;10.90;99.90;;;;;;4916895;29;20027;-91
2024/04/08 07:47:32;;;;;;;14.30;2.17;;;10.90;99.90;;;;;;4918062;29;20028;-93
2024/04/08 07:49:59;;;;;;;14.95;1.90;;;10.90;99.90;;;;;;4924635;29;20055;-92
2024/04/08 07:52:28;;;;;;;23.98;2.20;;;11.00;99.90;;;;;;4918369;29;20028;-92
2024/04/08 07:54:55;;;;;;;22.98;2.72;;;11.00;99.90;;;;;;4924266;29;20028;-92
2024/04/08 07:57:21;;;;;;;14.00;2.20;;;11.00;99.90;;;;;;4929669;29;20115;-93
2024/04/08 07:59:51;;;;;;;25.13;3.75;;;11.00;99.90;;;;;;4935289;29;20043;-93
2024/04/08 08:02:17;;;;;;;11.73;1.90;;;11.00;99.90;;;;;;4936522;29;20019;-92
2024/04/08 08:04:43;;;;;;;18.95;2.15;;;11.10;99.90;;;;;;4930170;29;20039;-92
2024/04/08 08:07:09;;;;;;;19.55;3.38;;;11.10;99.90;;;;;;4935747;29;20074;-92
2024/04/08 08:09:37;;;;;;;19.63;3.47;;;11.20;99.90;;;;;;4932597;29;20137;-93
2024/04/08 08:12:03;;;;;;;13.35;2.10;;;11.20;99.90;;;;;;4937248;29;20039;-91
2024/04/08 08:14:29;;;;;;;14.68;2.20;;;11.30;99.90;;;;;;4928516;29;20126;-92
2024/04/08 08:16:56;;;;;;;8.48;1.63;;;11.30;99.90;;;;;;4923255;29;20110;-91
2024/04/08 08:19:21;;;;;;;11.38;2.10;;;11.30;99.90;;;;;;4928257;29;20027;-90
2024/04/08 08:21:51;;;;;;;13.77;2.33;;;11.30;99.90;;;;;;4931923;29;20114;-91
2024/04/08 08:24:19;;;;;;;17.80;2.40;;;11.30;99.90;;;;;;4929053;29;20031;-93
2024/04/08 08:26:48;;;;;;;11.23;1.85;;;11.30;99.90;;;;;;4922193;29;20052;-91
2024/04/08 08:29:13;;;;;;;8.45;1.33;;;11.30;99.90;;;;;;4922239;29;20040;-91
2024/04/08 08:31:39;;;;;;;9.63;1.60;;;11.20;99.90;;;;;;4921856;29;20478;-93
2024/04/08 08:34:05;;;;;;;7.82;1.30;;;11.20;99.90;;;;;;4922107;29;20036;-92
2024/04/08 08:36:31;;;;;;;17.50;2.58;;;11.20;99.90;;;;;;4922395;29;20059;-92
2024/04/08 08:39:00;;;;;;;8.55;1.58;;;11.10;99.90;;;;;;4925312;29;20028;-94
2024/04/08 08:41:30;;;;;;;18.15;2.00;;;11.10;99.90;;;;;;4926394;29;20106;-93
2024/04/08 08:44:01;;;;;;;16.83;1.70;;;11.10;99.90;;;;;;4927150;29;20027;-91
2024/04/08 08:46:29;;;;;;;23.73;3.53;;;11.10;99.90;;;;;;4926962;29;20032;-91
2024/04/08 08:48:59;;;;;;;19.50;2.15;;;11.10;99.90;;;;;;4926470;29;20046;-91
2024/04/08 08:51:27;;;;;;;19.45;2.40;;;11.10;99.90;;;;;;4926356;29;20024;-92
2024/04/08 08:53:53;;;;;;;26.27;3.03;;;11.20;99.90;;;;;;4924183;29;20028;-92
2024/04/08 08:56:19;;;;;;;20.65;3.03;;;11.20;99.90;;;;;;4923414;29;20083;-93
2024/04/08 08:58:52;;;;;;;16.88;3.67;;;11.30;99.90;;;;;;4925478;29;20048;-92
2024/04/08 09:01:19;;;;;;;18.25;2.55;;;11.40;99.90;;;;;;4936289;29;20389;-93
2024/04/08 09:03:45;;;;;;;22.92;2.60;;;11.50;99.90;;;;;;4935467;29;20115;-92
2024/04/08 09:06:11;;;;;;;28.70;3.38;;;11.60;99.90;;;;;;4947070;28;20043;-93
2024/04/08 09:08:42;;;;;;;23.10;2.78;;;11.70;99.90;;;;;;4938868;29;20094;-94
2024/04/08 09:11:09;;;;;;;22.95;3.80;;;11.70;99.90;;;;;;4946884;29;20043;-93
2024/04/08 09:13:38;;;;;;;22.35;3.17;;;11.70;99.90;;;;;;4951792;29;20031;-93
2024/04/08 09:16:10;;;;;;;18.55;2.88;;;11.70;99.90;;;;;;4960141;29;20027;-92
2024/04/08 09:18:35;;;;;;;22.85;4.32;;;11.70;99.90;;;;;;4960375;29;20047;-93
2024/04/08 09:21:01;;;;;;;22.05;2.70;;;11.70;99.90;;;;;;4959558;29;20042;-94
2024/04/08 09:23:35;;;;;;;15.95;2.50;;;11.70;99.90;;;;;;4953697;29;20078;-95
2024/04/08 09:26:01;;;;;;;22.15;2.95;;;11.80;99.90;;;;;;4947023;29;20126;-94
2024/04/08 09:28:28;;;;;;;29.25;3.45;;;11.80;99.90;;;;;;4945009;29;20485;-93
2024/04/08 09:30:56;;;;;;;17.60;3.10;;;11.90;99.90;;;;;;4946404;29;20050;-94
2024/04/08 09:33:22;;;;;;;36.50;4.00;;;11.90;99.90;;;;;;4943038;29;20039;-93
2024/04/08 09:35:49;;;;;;;19.73;2.85;;;11.90;99.90;;;;;;4942551;29;20572;-92
2024/04/08 09:38:24;;;;;;;21.52;2.63;;;11.90;99.90;;;;;;4941769;29;20042;-93
2024/04/08 09:40:59;;;;;;;22.73;2.88;;;11.90;99.90;;;;;;4941253;29;20086;-93
2024/04/08 09:43:25;;;;;;;19.85;3.05;;;11.90;99.90;;;;;;4941207;29;20028;-92
2024/04/08 09:45:51;;;;;;;23.77;3.13;;;11.90;99.90;;;;;;4940696;29;20078;-92
2024/04/08 09:48:25;;;;;;;22.33;4.53;;;11.90;99.90;;;;;;4939551;29;20035;-94
2024/04/08 09:50:54;;;;;;;27.08;3.67;;;11.90;99.90;;;;;;4940355;29;20031;-93
2024/04/08 09:53:20;;;;;;;19.50;3.10;;;11.90;99.90;;;;;;4940861;29;20118;-93
2024/04/08 09:55:53;;;;;;;24.30;2.80;;;12.00;99.90;;;;;;4920768;29;20082;-95
2024/04/08 09:58:25;;;;;;;19.95;2.78;;;12.00;99.90;;;;;;4902492;29;20140;-93
2024/04/08 10:01:03;;;;;;;17.77;3.20;;;12.10;99.90;;;;;;4920015;29;20063;-95
2024/04/08 10:03:42;;;;;;;25.17;3.00;;;12.10;99.90;;;;;;4924007;29;20498;-94
2024/04/08 10:06:12;;;;;;;29.27;3.47;;;12.10;99.90;;;;;;4900923;29;20046;-93
2024/04/08 10:08:39;;;;;;;17.35;2.50;;;12.10;99.90;;;;;;4921187;29;20056;-92
2024/04/08 10:11:10;;;;;;;20.15;2.20;;;12.10;99.90;;;;;;4920797;29;20140;-94
2024/04/08 10:14:00;;;;;;;14.05;2.72;;;12.10;99.90;;;;;;4920907;29;20028;-95
2024/04/08 10:16:29;;;;;;;20.17;2.53;;;12.10;99.90;;;;;;4922895;29;20498;-94
2024/04/08 10:18:55;;;;;;;20.77;2.70;;;12.20;99.90;;;;;;4921271;29;20035;-95
2024/04/08 10:21:25;;;;;;;26.90;3.15;;;12.30;99.90;;;;;;4921562;29;20024;-94
2024/04/08 10:23:54;;;;;;;24.05;2.45;;;12.30;99.90;;;;;;4922279;29;20402;-94
2024/04/08 10:26:25;;;;;;;25.10;2.75;;;12.40;99.90;;;;;;4930560;29;20063;-94
2024/04/08 10:28:52;;;;;;;18.08;1.95;;;12.40;99.90;;;;;;4892772;29;20044;-92
2024/04/08 10:31:27;;;;;;;14.23;2.25;;;12.40;99.90;;;;;;4913240;29;20040;-94
2024/04/08 10:33:52;;;;;;;23.23;3.10;;;12.40;99.90;;;;;;4912523;29;20035;-93
2024/04/08 10:36:20;;;;;;;17.13;3.10;;;12.50;99.90;;;;;;4925940;29;20474;-93
2024/04/08 10:38:48;;;;;;;16.00;2.42;;;12.60;99.90;;;;;;4909379;29;20032;-94
2024/04/08 10:41:22;;;;;;;18.10;2.55;;;12.70;99.90;;;;;;4912120;29;20044;-93
2024/04/08 10:43:52;;;;;;;23.65;2.30;;;13.00;99.90;;;;;;4911891;29;20430;-95
2024/04/08 10:46:20;;;;;;;27.50;2.75;;;13.10;99.90;;;;;;4912085;29;20024;-92
2024/04/08 10:48:50;;;;;;;25.33;3.70;;;13.30;99.90;;;;;;4909774;29;20052;-93
2024/04/08 10:51:17;;;;;;;13.10;2.03;;;13.40;99.90;;;;;;4924463;29;20056;-93
2024/04/08 10:53:52;;;;;;;22.65;4.00;;;13.50;99.90;;;;;;4901202;29;20028;-94
2024/04/08 10:56:18;;;;;;;17.88;3.70;;;13.60;99.90;;;;;;4933184;29;20044;-96
2024/04/08 10:58:51;;;;;;;19.80;3.00;;;13.70;99.90;;;;;;4917344;29;20554;-94
2024/04/08 11:01:19;;;;;;;17.23;2.47;;;13.70;99.90;;;;;;4917336;29;20031;-95
2024/04/08 11:03:48;;;;;;;16.05;1.80;;;13.80;99.90;;;;;;4918179;29;20111;-93
2024/04/08 11:06:15;;;;;;;24.67;2.35;;;13.80;99.90;;;;;;4917863;29;20056;-93
2024/04/08 11:08:43;;;;;;;14.32;2.08;;;13.90;99.90;;;;;;4920120;29;20086;-93
2024/04/08 11:11:09;;;;;;;18.02;3.15;;;13.90;99.90;;;;;;4953203;29;20039;-94
2024/04/08 11:13:36;;;;;;;17.15;2.10;;;13.80;99.90;;;;;;4941869;29;20046;-94
2024/04/08 11:16:06;;;;;;;19.65;2.90;;;13.80;99.90;;;;;;4929799;29;20035;-92
2024/04/08 11:18:40;;;;;;;16.20;2.90;;;13.80;99.90;;;;;;4943889;29;20023;-93
2024/04/08 11:21:11;;;;;;;13.05;1.90;;;13.80;99.90;;;;;;4922583;29;20032;-94
2024/04/08 11:23:44;;;;;;;12.57;2.35;;;13.70;99.90;;;;;;4929108;29;20023;-94
2024/04/08 11:26:18;;;;;;;15.70;2.05;;;13.80;99.90;;;;;;4964095;29;20079;-93
2024/04/08 11:28:47;;;;;;;16.20;2.60;;;13.80;99.90;;;;;;4929585;29;20035;-95
2024/04/08 11:31:13;;;;;;;21.90;2.80;;;13.90;99.90;;;;;;4932895;29;20114;-93
2024/04/08 11:33:44;;;;;;;15.13;2.00;;;14.00;99.90;;;;;;4965412;29;20028;-95
2024/04/08 11:36:14;;;;;;;13.07;3.05;;;14.10;99.90;;;;;;4928902;29;20047;-94
2024/04/08 11:38:43;;;;;;;14.68;2.05;;;14.20;99.90;;;;;;4927904;29;20071;-95
2024/04/08 11:44:47;;;;;;;11.38;2.50;;;14.30;99.90;;;;;;4927570;29;20043;-95
2024/04/08 11:47:18;;;;;;;11.20;2.72;;;14.40;99.90;;;;;;4919783;29;20032;-94
2024/04/08 11:49:53;;;;;;;17.25;2.05;;;14.50;99.90;;;;;;4910033;29;20127;-95
2024/04/08 11:52:33;;;;;;;16.80;1.95;;;14.50;99.90;;;;;;4913242;29;20044;-94
2024/04/08 11:55:20;;;;;;;13.27;2.30;;;14.50;99.90;;;;;;4917127;29;20036;-94
2024/04/08 11:57:47;;;;;;;16.83;2.22;;;14.50;99.90;;;;;;4911756;29;20036;-95
2024/04/08 12:00:19;;;;;;;8.48;1.63;;;14.60;99.90;;;;;;4892824;29;20040;-95
2024/04/08 12:02:48;;;;;;;14.32;2.10;;;14.60;99.90;;;;;;4906109;29;20064;-95
2024/04/08 12:05:16;;;;;;;11.15;1.98;;;14.70;99.90;;;;;;4922387;29;20030;-94
2024/04/08 12:07:51;;;;;;;10.63;2.03;;;14.90;99.90;;;;;;4922007;29;20137;-95
2024/04/08 12:10:18;;;;;;;10.98;1.98;;;15.00;99.90;;;;;;4921673;29;20127;-95
2024/04/08 12:12:48;;;;;;;11.35;1.92;;;15.10;99.90;;;;;;4902253;29;20036;-95
2024/04/08 12:54:50;;;;;;;13.77;1.95;;;15.20;99.00;;;;;;4922394;29;19918;-94
2024/04/08 12:57:16;;;;;;;9.18;1.52;;;15.20;99.00;;;;;;4916152;29;20044;-77
2024/04/08 12:59:42;;;;;;;13.05;1.88;;;15.30;99.10;;;;;;4918076;29;20547;-79
2024/04/08 13:02:07;;;;;;;10.73;2.33;;;15.30;99.20;;;;;;4917790;29;20032;-80
2024/04/08 13:04:34;;;;;;;14.48;2.97;;;15.30;99.20;;;;;;4900568;29;20028;-81
2024/04/08 13:07:00;;;;;;;17.40;2.28;;;15.40;99.40;;;;;;4917729;29;20453;-82
2024/04/08 13:09:26;;;;;;;13.80;1.92;;;15.40;99.70;;;;;;4917906;29;20044;-79
2024/04/08 13:11:51;;;;;;;13.18;2.05;;;15.40;99.40;;;;;;4917653;29;20459;-79
2024/04/08 13:14:17;;;;;;;14.05;2.00;;;15.40;98.70;;;;;;4917587;29;20224;-78
2024/04/08 13:16:43;;;;;;;17.13;2.80;;;15.30;98.80;;;;;;4917563;29;20039;-78
2024/04/08 13:19:08;;;;;;;12.23;1.73;;;15.30;98.90;;;;;;4917517;29;20056;-78
2024/04/08 13:21:34;;;;;;;8.30;1.67;;;15.40;99.40;;;;;;4900377;29;20094;-80
2024/04/08 13:24:00;;;;;;;11.73;2.10;;;15.40;99.30;;;;;;4900365;29;20103;-81
2024/04/08 13:26:26;;;;;;;9.48;1.70;;;15.40;98.80;;;;;;4916979;29;20469;-79
2024/04/08 13:28:52;;;;;;;19.33;1.95;;;15.40;98.80;;;;;;4900232;29;20036;-80
2024/04/08 13:31:17;;;;;;;6.75;1.50;;;15.30;98.20;;;;;;4900082;29;20039;-76